sensor_id;sensor_type;location;lat;lon;timestamp;P1;durP1;ratioP1;P2;durP2;ratioP2
39874;SDS011;25547;52.530;13.194;2023-04-06T00:02:22;4.57;;;0.77;;
39874;SDS011;25547;52.530;13.194;2023-04-06T00:04:50;4.22;;;1.02;;
39874;SDS011;25547;52.530;13.194;2023-04-06T00:07:20;2.83;;;0.73;;
39874;SDS011;25547;52.530;13.194;2023-04-06T00:09:48;5.97;;;1.00;;
39874;SDS011;25547;52.530;13.194;2023-04-06T00:12:14;6.43;;;0.90;;
39874;SDS011;25547;52.530;13.194;2023-04-06T00:14:44;3.60;;;0.77;;
39874;SDS011;25547;52.530;13.194;2023-04-06T00:17:12;3.92;;;1.13;;
39874;SDS011;25547;52.530;13.194;2023-04-06T00:19:37;2.50;;;0.60;;
39874;SDS011;25547;52.530;13.194;2023-04-06T00:22:06;4.40;;;0.93;;
39874;SDS011;25547;52.530;13.194;2023-04-06T00:24:31;5.97;;;0.70;;
39874;SDS011;25547;52.530;13.194;2023-04-06T00:26:57;5.45;;;1.40;;
39874;SDS011;25547;52.530;13.194;2023-04-06T00:29:25;3.63;;;0.63;;
39874;SDS011;25547;52.530;13.194;2023-04-06T00:31:50;7.75;;;0.50;;
39874;SDS011;25547;52.530;13.194;2023-04-06T00:34:16;7.00;;;0.77;;
39874;SDS011;25547;52.530;13.194;2023-04-06T00:36:41;2.78;;;0.70;;
39874;SDS011;25547;52.530;13.194;2023-04-06T00:39:07;3.67;;;0.75;;
39874;SDS011;25547;52.530;13.194;2023-04-06T00:41:33;3.50;;;0.40;;
39874;SDS011;25547;52.530;13.194;2023-04-06T00:43:59;4.60;;;0.40;;
39874;SDS011;25547;52.530;13.194;2023-04-06T00:46:26;3.58;;;0.55;;
39874;SDS011;25547;52.530;13.194;2023-04-06T00:48:56;4.32;;;0.50;;
39874;SDS011;25547;52.530;13.194;2023-04-06T00:51:22;2.97;;;0.60;;
39874;SDS011;25547;52.530;13.194;2023-04-06T00:53:47;2.65;;;0.90;;
39874;SDS011;25547;52.530;13.194;2023-04-06T00:56:13;4.63;;;0.63;;
39874;SDS011;25547;52.530;13.194;2023-04-06T00:58:39;4.40;;;0.80;;
39874;SDS011;25547;52.530;13.194;2023-04-06T01:01:05;3.55;;;0.98;;
39874;SDS011;25547;52.530;13.194;2023-04-06T01:03:31;3.33;;;0.50;;
39874;SDS011;25547;52.530;13.194;2023-04-06T01:05:57;4.65;;;0.98;;
39874;SDS011;25547;52.530;13.194;2023-04-06T01:08:25;4.40;;;0.77;;
39874;SDS011;25547;52.530;13.194;2023-04-06T01:10:51;5.22;;;0.45;;
39874;SDS011;25547;52.530;13.194;2023-04-06T01:13:19;3.13;;;0.63;;
39874;SDS011;25547;52.530;13.194;2023-04-06T01:15:47;5.50;;;0.70;;
39874;SDS011;25547;52.530;13.194;2023-04-06T01:18:16;4.65;;;0.70;;
39874;SDS011;25547;52.530;13.194;2023-04-06T01:20:42;3.22;;;0.52;;
39874;SDS011;25547;52.530;13.194;2023-04-06T01:23:08;5.47;;;0.57;;
39874;SDS011;25547;52.530;13.194;2023-04-06T01:25:34;5.95;;;0.68;;
39874;SDS011;25547;52.530;13.194;2023-04-06T01:28:04;3.42;;;0.40;;
39874;SDS011;25547;52.530;13.194;2023-04-06T01:30:32;3.95;;;0.63;;
39874;SDS011;25547;52.530;13.194;2023-04-06T01:32:57;3.92;;;0.90;;
39874;SDS011;25547;52.530;13.194;2023-04-06T01:35:23;3.00;;;0.57;;
39874;SDS011;25547;52.530;13.194;2023-04-06T01:37:51;3.83;;;0.70;;
39874;SDS011;25547;52.530;13.194;2023-04-06T01:40:19;3.78;;;0.73;;
39874;SDS011;25547;52.530;13.194;2023-04-06T01:42:45;3.78;;;0.60;;
39874;SDS011;25547;52.530;13.194;2023-04-06T01:45:11;3.35;;;0.70;;
39874;SDS011;25547;52.530;13.194;2023-04-06T01:47:39;4.18;;;0.75;;
39874;SDS011;25547;52.530;13.194;2023-04-06T01:50:05;5.72;;;0.73;;
39874;SDS011;25547;52.530;13.194;2023-04-06T01:52:35;3.70;;;0.57;;
39874;SDS011;25547;52.530;13.194;2023-04-06T01:55:00;3.35;;;0.30;;
39874;SDS011;25547;52.530;13.194;2023-04-06T01:57:30;9.32;;;0.88;;
39874;SDS011;25547;52.530;13.194;2023-04-06T01:59:59;2.67;;;0.50;;
39874;SDS011;25547;52.530;13.194;2023-04-06T02:02:27;2.05;;;0.40;;
39874;SDS011;25547;52.530;13.194;2023-04-06T02:04:53;3.28;;;1.05;;
39874;SDS011;25547;52.530;13.194;2023-04-06T02:07:19;2.83;;;0.50;;
39874;SDS011;25547;52.530;13.194;2023-04-06T02:09:47;5.00;;;0.82;;
39874;SDS011;25547;52.530;13.194;2023-04-06T02:12:12;3.05;;;0.70;;
39874;SDS011;25547;52.530;13.194;2023-04-06T02:14:40;3.97;;;0.52;;
39874;SDS011;25547;52.530;13.194;2023-04-06T02:17:06;3.35;;;0.75;;
39874;SDS011;25547;52.530;13.194;2023-04-06T02:19:34;2.42;;;0.55;;
39874;SDS011;25547;52.530;13.194;2023-04-06T02:22:02;3.25;;;0.75;;
39874;SDS011;25547;52.530;13.194;2023-04-06T02:24:30;3.50;;;0.60;;
39874;SDS011;25547;52.530;13.194;2023-04-06T02:26:55;5.00;;;0.60;;
39874;SDS011;25547;52.530;13.194;2023-04-06T02:29:21;3.63;;;0.60;;
39874;SDS011;25547;52.530;13.194;2023-04-06T02:31:47;4.90;;;1.35;;
39874;SDS011;25547;52.530;13.194;2023-04-06T02:34:12;3.67;;;1.02;;
39874;SDS011;25547;52.530;13.194;2023-04-06T02:36:43;2.33;;;1.00;;
39874;SDS011;25547;52.530;13.194;2023-04-06T02:39:12;4.18;;;0.85;;
39874;SDS011;25547;52.530;13.194;2023-04-06T02:41:38;2.67;;;1.00;;
39874;SDS011;25547;52.530;13.194;2023-04-06T02:44:06;3.67;;;0.80;;
39874;SDS011;25547;52.530;13.194;2023-04-06T02:46:33;4.80;;;1.25;;
39874;SDS011;25547;52.530;13.194;2023-04-06T02:48:59;3.10;;;0.85;;
39874;SDS011;25547;52.530;13.194;2023-04-06T02:51:27;5.75;;;1.17;;
39874;SDS011;25547;52.530;13.194;2023-04-06T02:53:53;4.88;;;1.35;;
39874;SDS011;25547;52.530;13.194;2023-04-06T02:56:21;6.93;;;0.80;;
39874;SDS011;25547;52.530;13.194;2023-04-06T02:58:49;4.20;;;0.98;;
39874;SDS011;25547;52.530;13.194;2023-04-06T03:01:17;2.78;;;0.90;;
39874;SDS011;25547;52.530;13.194;2023-04-06T03:03:43;5.22;;;0.90;;
39874;SDS011;25547;52.530;13.194;2023-04-06T03:06:09;2.90;;;1.20;;
39874;SDS011;25547;52.530;13.194;2023-04-06T03:08:35;3.17;;;0.55;;
39874;SDS011;25547;52.530;13.194;2023-04-06T03:11:01;4.10;;;0.52;;
39874;SDS011;25547;52.530;13.194;2023-04-06T03:13:26;2.78;;;0.60;;
39874;SDS011;25547;52.530;13.194;2023-04-06T03:15:52;3.50;;;0.75;;
39874;SDS011;25547;52.530;13.194;2023-04-06T03:18:25;4.00;;;1.05;;
39874;SDS011;25547;52.530;13.194;2023-04-06T03:20:55;3.50;;;0.60;;
39874;SDS011;25547;52.530;13.194;2023-04-06T03:23:21;4.40;;;1.00;;
39874;SDS011;25547;52.530;13.194;2023-04-06T03:25:46;6.05;;;0.98;;
39874;SDS011;25547;52.530;13.194;2023-04-06T03:28:12;4.22;;;0.73;;
39874;SDS011;25547;52.530;13.194;2023-04-06T03:30:38;4.72;;;0.73;;
39874;SDS011;25547;52.530;13.194;2023-04-06T03:33:06;6.13;;;1.05;;
39874;SDS011;25547;52.530;13.194;2023-04-06T03:35:31;2.88;;;0.65;;
39874;SDS011;25547;52.530;13.194;2023-04-06T03:37:57;5.40;;;1.08;;
39874;SDS011;25547;52.530;13.194;2023-04-06T03:40:27;8.93;;;0.80;;
39874;SDS011;25547;52.530;13.194;2023-04-06T03:42:55;7.00;;;1.00;;
39874;SDS011;25547;52.530;13.194;2023-04-06T03:45:21;4.20;;;0.88;;
39874;SDS011;25547;52.530;13.194;2023-04-06T03:47:49;5.93;;;1.10;;
39874;SDS011;25547;52.530;13.194;2023-04-06T03:50:15;2.72;;;1.25;;
39874;SDS011;25547;52.530;13.194;2023-04-06T03:52:43;4.80;;;1.85;;
39874;SDS011;25547;52.530;13.194;2023-04-06T03:55:08;3.78;;;0.98;;
39874;SDS011;25547;52.530;13.194;2023-04-06T03:57:34;8.07;;;1.35;;
39874;SDS011;25547;52.530;13.194;2023-04-06T04:00:00;5.22;;;1.42;;
39874;SDS011;25547;52.530;13.194;2023-04-06T04:02:30;5.07;;;0.88;;
39874;SDS011;25547;52.530;13.194;2023-04-06T04:04:58;3.67;;;1.25;;
39874;SDS011;25547;52.530;13.194;2023-04-06T04:07:24;7.13;;;1.55;;
39874;SDS011;25547;52.530;13.194;2023-04-06T04:09:50;4.57;;;1.25;;
39874;SDS011;25547;52.530;13.194;2023-04-06T04:12:16;4.40;;;1.30;;
39874;SDS011;25547;52.530;13.194;2023-04-06T04:14:43;7.15;;;1.73;;
39874;SDS011;25547;52.530;13.194;2023-04-06T04:17:11;10.20;;;1.75;;
39874;SDS011;25547;52.530;13.194;2023-04-06T04:19:39;5.90;;;1.63;;
39874;SDS011;25547;52.530;13.194;2023-04-06T04:22:05;6.95;;;1.63;;
39874;SDS011;25547;52.530;13.194;2023-04-06T04:24:34;8.00;;;1.75;;
39874;SDS011;25547;52.530;13.194;2023-04-06T04:26:59;5.53;;;1.50;;
39874;SDS011;25547;52.530;13.194;2023-04-06T04:29:29;8.90;;;2.47;;
39874;SDS011;25547;52.530;13.194;2023-04-06T04:31:55;7.00;;;2.53;;
39874;SDS011;25547;52.530;13.194;2023-04-06T04:34:21;3.25;;;1.58;;
39874;SDS011;25547;52.530;13.194;2023-04-06T04:36:48;8.43;;;2.03;;
39874;SDS011;25547;52.530;13.194;2023-04-06T04:39:16;6.82;;;1.90;;
39874;SDS011;25547;52.530;13.194;2023-04-06T04:41:42;6.30;;;3.38;;
39874;SDS011;25547;52.530;13.194;2023-04-06T04:44:08;9.10;;;3.33;;
39874;SDS011;25547;52.530;13.194;2023-04-06T04:46:33;6.25;;;1.95;;
39874;SDS011;25547;52.530;13.194;2023-04-06T04:49:01;5.53;;;1.63;;
39874;SDS011;25547;52.530;13.194;2023-04-06T04:51:27;5.60;;;2.25;;
39874;SDS011;25547;52.530;13.194;2023-04-06T04:53:53;7.22;;;1.80;;
39874;SDS011;25547;52.530;13.194;2023-04-06T04:56:18;6.60;;;2.42;;
39874;SDS011;25547;52.530;13.194;2023-04-06T04:58:44;4.18;;;1.98;;
39874;SDS011;25547;52.530;13.194;2023-04-06T05:01:10;7.43;;;2.00;;
39874;SDS011;25547;52.530;13.194;2023-04-06T05:03:36;4.75;;;2.08;;
39874;SDS011;25547;52.530;13.194;2023-04-06T05:06:03;7.03;;;2.65;;
39874;SDS011;25547;52.530;13.194;2023-04-06T05:08:30;5.15;;;1.80;;
39874;SDS011;25547;52.530;13.194;2023-04-06T05:10:55;5.85;;;3.25;;
39874;SDS011;25547;52.530;13.194;2023-04-06T05:13:23;7.95;;;2.00;;
39874;SDS011;25547;52.530;13.194;2023-04-06T05:15:52;6.55;;;1.85;;
39874;SDS011;25547;52.530;13.194;2023-04-06T05:18:18;4.53;;;2.80;;
39874;SDS011;25547;52.530;13.194;2023-04-06T05:20:43;5.93;;;2.33;;
39874;SDS011;25547;52.530;13.194;2023-04-06T05:23:09;6.97;;;1.50;;
39874;SDS011;25547;52.530;13.194;2023-04-06T05:25:35;8.07;;;2.65;;
39874;SDS011;25547;52.530;13.194;2023-04-06T05:28:00;4.88;;;1.58;;
39874;SDS011;25547;52.530;13.194;2023-04-06T05:30:26;4.55;;;1.73;;
39874;SDS011;25547;52.530;13.194;2023-04-06T05:32:54;9.77;;;2.33;;
39874;SDS011;25547;52.530;13.194;2023-04-06T05:35:20;6.88;;;1.85;;
39874;SDS011;25547;52.530;13.194;2023-04-06T05:37:48;4.80;;;3.08;;
39874;SDS011;25547;52.530;13.194;2023-04-06T05:40:13;7.40;;;1.92;;
39874;SDS011;25547;52.530;13.194;2023-04-06T05:42:39;5.38;;;1.67;;
39874;SDS011;25547;52.530;13.194;2023-04-06T05:45:09;6.97;;;1.95;;
39874;SDS011;25547;52.530;13.194;2023-04-06T05:47:36;6.65;;;2.45;;
39874;SDS011;25547;52.530;13.194;2023-04-06T05:50:02;5.10;;;1.85;;
39874;SDS011;25547;52.530;13.194;2023-04-06T05:52:28;15.98;;;3.95;;
39874;SDS011;25547;52.530;13.194;2023-04-06T05:54:54;11.63;;;1.85;;
39874;SDS011;25547;52.530;13.194;2023-04-06T05:57:20;3.78;;;1.85;;
39874;SDS011;25547;52.530;13.194;2023-04-06T05:59:48;5.38;;;1.83;;
39874;SDS011;25547;52.530;13.194;2023-04-06T06:02:13;11.15;;;2.33;;
39874;SDS011;25547;52.530;13.194;2023-04-06T06:04:41;4.95;;;2.67;;
39874;SDS011;25547;52.530;13.194;2023-04-06T06:07:09;6.88;;;2.25;;
39874;SDS011;25547;52.530;13.194;2023-04-06T06:09:35;6.65;;;2.35;;
39874;SDS011;25547;52.530;13.194;2023-04-06T06:12:03;9.25;;;2.83;;
39874;SDS011;25547;52.530;13.194;2023-04-06T06:14:29;6.07;;;2.15;;
39874;SDS011;25547;52.530;13.194;2023-04-06T06:16:54;7.32;;;2.03;;
39874;SDS011;25547;52.530;13.194;2023-04-06T06:19:20;4.63;;;1.70;;
39874;SDS011;25547;52.530;13.194;2023-04-06T06:21:46;7.05;;;2.15;;
39874;SDS011;25547;52.530;13.194;2023-04-06T06:24:11;6.15;;;1.55;;
39874;SDS011;25547;52.530;13.194;2023-04-06T06:26:39;6.95;;;2.90;;
39874;SDS011;25547;52.530;13.194;2023-04-06T06:29:05;9.82;;;2.30;;
39874;SDS011;25547;52.530;13.194;2023-04-06T06:31:31;15.68;;;4.63;;
39874;SDS011;25547;52.530;13.194;2023-04-06T06:34:00;6.78;;;2.15;;
39874;SDS011;25547;52.530;13.194;2023-04-06T06:36:26;5.22;;;2.22;;
39874;SDS011;25547;52.530;13.194;2023-04-06T06:38:52;6.45;;;1.75;;
39874;SDS011;25547;52.530;13.194;2023-04-06T06:41:18;5.15;;;2.33;;
39874;SDS011;25547;52.530;13.194;2023-04-06T06:43:44;4.50;;;1.58;;
39874;SDS011;25547;52.530;13.194;2023-04-06T06:46:09;15.02;;;4.50;;
39874;SDS011;25547;52.530;13.194;2023-04-06T06:48:35;5.13;;;1.90;;
39874;SDS011;25547;52.530;13.194;2023-04-06T06:51:01;4.78;;;2.67;;
39874;SDS011;25547;52.530;13.194;2023-04-06T06:53:26;5.32;;;1.98;;
39874;SDS011;25547;52.530;13.194;2023-04-06T06:55:54;8.85;;;2.80;;
39874;SDS011;25547;52.530;13.194;2023-04-06T06:58:22;5.13;;;1.80;;
39874;SDS011;25547;52.530;13.194;2023-04-06T07:00:48;6.28;;;1.80;;
39874;SDS011;25547;52.530;13.194;2023-04-06T07:03:15;6.63;;;1.80;;
39874;SDS011;25547;52.530;13.194;2023-04-06T07:05:49;3.55;;;1.27;;
39874;SDS011;25547;52.530;13.194;2023-04-06T07:08:18;5.20;;;1.45;;
39874;SDS011;25547;52.530;13.194;2023-04-06T07:10:45;7.53;;;2.05;;
39874;SDS011;25547;52.530;13.194;2023-04-06T07:13:13;3.90;;;2.10;;
39874;SDS011;25547;52.530;13.194;2023-04-06T07:15:47;4.07;;;1.65;;
39874;SDS011;25547;52.530;13.194;2023-04-06T07:18:15;7.07;;;1.70;;
39874;SDS011;25547;52.530;13.194;2023-04-06T07:20:41;3.70;;;1.70;;
39874;SDS011;25547;52.530;13.194;2023-04-06T07:23:07;6.55;;;1.63;;
39874;SDS011;25547;52.530;13.194;2023-04-06T07:25:35;4.00;;;1.58;;
39874;SDS011;25547;52.530;13.194;2023-04-06T07:28:01;4.38;;;1.77;;
39874;SDS011;25547;52.530;13.194;2023-04-06T07:30:32;3.03;;;1.25;;
39874;SDS011;25547;52.530;13.194;2023-04-06T07:32:58;4.80;;;1.67;;
39874;SDS011;25547;52.530;13.194;2023-04-06T07:35:24;6.18;;;0.82;;
39874;SDS011;25547;52.530;13.194;2023-04-06T07:37:54;3.50;;;1.50;;
39874;SDS011;25547;52.530;13.194;2023-04-06T07:40:20;3.45;;;0.75;;
39874;SDS011;25547;52.530;13.194;2023-04-06T07:42:51;4.35;;;0.88;;
39874;SDS011;25547;52.530;13.194;2023-04-06T07:45:18;3.70;;;0.68;;
39874;SDS011;25547;52.530;13.194;2023-04-06T07:47:47;1.90;;;0.70;;
39874;SDS011;25547;52.530;13.194;2023-04-06T07:50:12;5.03;;;0.60;;
39874;SDS011;25547;52.530;13.194;2023-04-06T07:52:38;7.10;;;0.88;;
39874;SDS011;25547;52.530;13.194;2023-04-06T07:55:04;5.63;;;1.40;;
39874;SDS011;25547;52.530;13.194;2023-04-06T07:57:30;3.25;;;0.40;;
39874;SDS011;25547;52.530;13.194;2023-04-06T07:59:58;2.70;;;0.50;;
39874;SDS011;25547;52.530;13.194;2023-04-06T08:02:24;2.85;;;0.75;;
39874;SDS011;25547;52.530;13.194;2023-04-06T08:04:52;2.92;;;0.60;;
39874;SDS011;25547;52.530;13.194;2023-04-06T08:07:20;1.63;;;0.40;;
39874;SDS011;25547;52.530;13.194;2023-04-06T08:09:51;3.67;;;0.50;;
39874;SDS011;25547;52.530;13.194;2023-04-06T08:12:21;1.35;;;0.25;;
39874;SDS011;25547;52.530;13.194;2023-04-06T08:14:47;2.17;;;0.40;;
39874;SDS011;25547;52.530;13.194;2023-04-06T08:17:13;1.80;;;0.47;;
39874;SDS011;25547;52.530;13.194;2023-04-06T08:19:39;1.95;;;0.25;;
39874;SDS011;25547;52.530;13.194;2023-04-06T08:22:12;1.30;;;0.20;;
39874;SDS011;25547;52.530;13.194;2023-04-06T08:24:38;1.40;;;0.25;;
39874;SDS011;25547;52.530;13.194;2023-04-06T08:27:04;1.73;;;0.30;;
39874;SDS011;25547;52.530;13.194;2023-04-06T08:29:30;2.65;;;0.20;;
39874;SDS011;25547;52.530;13.194;2023-04-06T08:31:58;1.30;;;0.20;;
39874;SDS011;25547;52.530;13.194;2023-04-06T08:34:24;3.05;;;0.50;;
39874;SDS011;25547;52.530;13.194;2023-04-06T08:36:52;1.10;;;0.20;;
39874;SDS011;25547;52.530;13.194;2023-04-06T08:39:17;2.63;;;0.20;;
39874;SDS011;25547;52.530;13.194;2023-04-06T08:41:50;1.35;;;0.30;;
39874;SDS011;25547;52.530;13.194;2023-04-06T08:44:17;1.98;;;0.40;;
39874;SDS011;25547;52.530;13.194;2023-04-06T08:46:43;1.23;;;0.10;;
39874;SDS011;25547;52.530;13.194;2023-04-06T08:49:12;1.95;;;0.30;;
39874;SDS011;25547;52.530;13.194;2023-04-06T08:51:41;1.92;;;0.10;;
39874;SDS011;25547;52.530;13.194;2023-04-06T08:54:07;2.83;;;0.55;;
39874;SDS011;25547;52.530;13.194;2023-04-06T08:56:36;3.45;;;0.20;;
39874;SDS011;25547;52.530;13.194;2023-04-06T08:59:03;2.08;;;0.20;;
39874;SDS011;25547;52.530;13.194;2023-04-06T09:01:33;3.20;;;0.20;;
39874;SDS011;25547;52.530;13.194;2023-04-06T09:04:05;1.83;;;0.50;;
39874;SDS011;25547;52.530;13.194;2023-04-06T09:06:35;0.93;;;0.10;;
39874;SDS011;25547;52.530;13.194;2023-04-06T09:09:05;2.65;;;0.10;;
39874;SDS011;25547;52.530;13.194;2023-04-06T09:14:13;2.05;;;0.60;;
39874;SDS011;25547;52.530;13.194;2023-04-06T09:16:44;1.20;;;0.10;;
39874;SDS011;25547;52.530;13.194;2023-04-06T09:19:12;0.85;;;0.10;;
39874;SDS011;25547;52.530;13.194;2023-04-06T09:21:40;0.88;;;0.17;;
39874;SDS011;25547;52.530;13.194;2023-04-06T09:24:08;5.53;;;0.50;;
39874;SDS011;25547;52.530;13.194;2023-04-06T09:26:43;3.10;;;0.20;;
39874;SDS011;25547;52.530;13.194;2023-04-06T09:29:26;1.73;;;0.10;;
39874;SDS011;25547;52.530;13.194;2023-04-06T09:31:52;0.95;;;0.10;;
39874;SDS011;25547;52.530;13.194;2023-04-06T09:34:26;2.28;;;0.10;;
39874;SDS011;25547;52.530;13.194;2023-04-06T09:36:52;2.33;;;0.28;;
39874;SDS011;25547;52.530;13.194;2023-04-06T09:39:21;2.33;;;0.43;;
39874;SDS011;25547;52.530;13.194;2023-04-06T09:41:49;2.67;;;0.20;;
39874;SDS011;25547;52.530;13.194;2023-04-06T09:44:15;2.67;;;0.20;;
39874;SDS011;25547;52.530;13.194;2023-04-06T09:46:44;1.60;;;0.20;;
39874;SDS011;25547;52.530;13.194;2023-04-06T09:49:11;2.38;;;0.35;;
39874;SDS011;25547;52.530;13.194;2023-04-06T09:51:44;2.10;;;0.77;;
39874;SDS011;25547;52.530;13.194;2023-04-06T09:54:15;1.48;;;0.22;;
39874;SDS011;25547;52.530;13.194;2023-04-06T09:56:50;3.38;;;0.20;;
39874;SDS011;25547;52.530;13.194;2023-04-06T10:02:32;1.45;;;0.30;;
39874;SDS011;25547;52.530;13.194;2023-04-06T10:04:56;4.22;;;0.10;;
39874;SDS011;25547;52.530;13.194;2023-04-06T10:07:30;2.15;;;0.20;;
39874;SDS011;25547;52.530;13.194;2023-04-06T10:09:59;2.22;;;0.20;;
39874;SDS011;25547;52.530;13.194;2023-04-06T10:12:28;1.67;;;0.20;;
39874;SDS011;25547;52.530;13.194;2023-04-06T10:14:54;1.20;;;0.20;;
39874;SDS011;25547;52.530;13.194;2023-04-06T10:17:20;2.08;;;0.22;;
39874;SDS011;25547;52.530;13.194;2023-04-06T10:22:36;1.25;;;0.10;;
39874;SDS011;25547;52.530;13.194;2023-04-06T10:25:28;1.00;;;0.10;;
39874;SDS011;25547;52.530;13.194;2023-04-06T10:30:41;1.10;;;0.20;;
39874;SDS011;25547;52.530;13.194;2023-04-06T10:33:13;2.70;;;0.20;;
39874;SDS011;25547;52.530;13.194;2023-04-06T10:35:40;3.15;;;0.82;;
39874;SDS011;25547;52.530;13.194;2023-04-06T10:38:05;1.77;;;0.20;;
39874;SDS011;25547;52.530;13.194;2023-04-06T10:40:34;1.90;;;0.20;;
39874;SDS011;25547;52.530;13.194;2023-04-06T10:43:10;1.42;;;0.20;;
39874;SDS011;25547;52.530;13.194;2023-04-06T10:45:36;2.58;;;0.50;;
39874;SDS011;25547;52.530;13.194;2023-04-06T10:48:12;1.38;;;0.28;;
39874;SDS011;25547;52.530;13.194;2023-04-06T10:50:40;3.17;;;1.25;;
39874;SDS011;25547;52.530;13.194;2023-04-06T10:53:10;3.33;;;0.47;;
39874;SDS011;25547;52.530;13.194;2023-04-06T10:55:38;1.73;;;0.25;;
39874;SDS011;25547;52.530;13.194;2023-04-06T10:58:06;3.17;;;0.40;;
39874;SDS011;25547;52.530;13.194;2023-04-06T11:00:32;3.10;;;0.20;;
39874;SDS011;25547;52.530;13.194;2023-04-06T11:02:59;1.33;;;0.25;;
39874;SDS011;25547;52.530;13.194;2023-04-06T11:05:26;1.33;;;0.20;;
39874;SDS011;25547;52.530;13.194;2023-04-06T11:07:54;2.33;;;0.70;;
39874;SDS011;25547;52.530;13.194;2023-04-06T11:10:21;1.70;;;0.22;;
39874;SDS011;25547;52.530;13.194;2023-04-06T11:12:52;2.33;;;0.45;;
39874;SDS011;25547;52.530;13.194;2023-04-06T11:15:21;4.88;;;0.60;;
39874;SDS011;25547;52.530;13.194;2023-04-06T11:17:47;3.60;;;0.82;;
39874;SDS011;25547;52.530;13.194;2023-04-06T11:20:14;1.65;;;0.20;;
39874;SDS011;25547;52.530;13.194;2023-04-06T11:22:51;1.65;;;0.20;;
39874;SDS011;25547;52.530;13.194;2023-04-06T11:25:17;1.00;;;0.20;;
39874;SDS011;25547;52.530;13.194;2023-04-06T11:27:43;2.25;;;0.60;;
39874;SDS011;25547;52.530;13.194;2023-04-06T11:30:13;1.67;;;0.52;;
39874;SDS011;25547;52.530;13.194;2023-04-06T11:32:40;2.03;;;0.20;;
39874;SDS011;25547;52.530;13.194;2023-04-06T11:35:10;2.00;;;0.38;;
39874;SDS011;25547;52.530;13.194;2023-04-06T11:37:47;1.52;;;0.47;;
39874;SDS011;25547;52.530;13.194;2023-04-06T11:40:20;3.08;;;0.22;;
39874;SDS011;25547;52.530;13.194;2023-04-06T11:42:53;4.50;;;0.28;;
39874;SDS011;25547;52.530;13.194;2023-04-06T11:45:21;1.05;;;0.20;;
39874;SDS011;25547;52.530;13.194;2023-04-06T11:47:57;2.03;;;0.20;;
39874;SDS011;25547;52.530;13.194;2023-04-06T11:50:31;1.95;;;0.43;;
39874;SDS011;25547;52.530;13.194;2023-04-06T11:52:59;2.75;;;0.30;;
39874;SDS011;25547;52.530;13.194;2023-04-06T11:55:26;1.92;;;0.40;;
39874;SDS011;25547;52.530;13.194;2023-04-06T11:57:52;1.05;;;0.30;;
39874;SDS011;25547;52.530;13.194;2023-04-06T12:00:18;2.28;;;0.40;;
39874;SDS011;25547;52.530;13.194;2023-04-06T12:02:45;1.33;;;0.22;;
39874;SDS011;25547;52.530;13.194;2023-04-06T12:05:12;1.95;;;0.38;;
39874;SDS011;25547;52.530;13.194;2023-04-06T12:07:37;1.40;;;0.30;;
39874;SDS011;25547;52.530;13.194;2023-04-06T12:10:03;2.63;;;0.40;;
39874;SDS011;25547;52.530;13.194;2023-04-06T12:12:30;1.50;;;0.30;;
39874;SDS011;25547;52.530;13.194;2023-04-06T12:14:56;1.50;;;0.77;;
39874;SDS011;25547;52.530;13.194;2023-04-06T12:17:21;2.10;;;0.35;;
39874;SDS011;25547;52.530;13.194;2023-04-06T12:19:48;1.63;;;0.40;;
39874;SDS011;25547;52.530;13.194;2023-04-06T12:22:13;2.25;;;0.73;;
39874;SDS011;25547;52.530;13.194;2023-04-06T12:24:41;3.72;;;0.22;;
39874;SDS011;25547;52.530;13.194;2023-04-06T12:27:07;2.85;;;0.45;;
39874;SDS011;25547;52.530;13.194;2023-04-06T12:29:33;2.38;;;0.40;;
39874;SDS011;25547;52.530;13.194;2023-04-06T12:32:01;1.48;;;0.32;;
39874;SDS011;25547;52.530;13.194;2023-04-06T12:34:27;2.65;;;1.40;;
39874;SDS011;25547;52.530;13.194;2023-04-06T12:36:55;4.40;;;0.38;;
39874;SDS011;25547;52.530;13.194;2023-04-06T12:39:21;1.25;;;0.20;;
39874;SDS011;25547;52.530;13.194;2023-04-06T12:41:47;2.28;;;0.20;;
39874;SDS011;25547;52.530;13.194;2023-04-06T12:44:13;1.40;;;0.20;;
39874;SDS011;25547;52.530;13.194;2023-04-06T12:46:38;2.35;;;0.38;;
39874;SDS011;25547;52.530;13.194;2023-04-06T12:49:04;1.92;;;0.57;;
39874;SDS011;25547;52.530;13.194;2023-04-06T12:51:32;1.75;;;0.22;;
39874;SDS011;25547;52.530;13.194;2023-04-06T12:53:58;1.90;;;0.30;;
39874;SDS011;25547;52.530;13.194;2023-04-06T12:56:25;1.75;;;0.38;;
39874;SDS011;25547;52.530;13.194;2023-04-06T12:58:51;2.35;;;0.88;;
39874;SDS011;25547;52.530;13.194;2023-04-06T13:01:18;2.38;;;0.22;;
39874;SDS011;25547;52.530;13.194;2023-04-06T13:03:46;1.17;;;0.35;;
39874;SDS011;25547;52.530;13.194;2023-04-06T13:06:14;2.40;;;0.30;;
39874;SDS011;25547;52.530;13.194;2023-04-06T13:08:42;1.88;;;0.30;;
39874;SDS011;25547;52.530;13.194;2023-04-06T13:11:08;2.78;;;0.60;;
39874;SDS011;25547;52.530;13.194;2023-04-06T13:13:34;2.03;;;0.32;;
39874;SDS011;25547;52.530;13.194;2023-04-06T13:16:02;4.88;;;0.40;;
39874;SDS011;25547;52.530;13.194;2023-04-06T13:18:29;1.65;;;0.22;;
39874;SDS011;25547;52.530;13.194;2023-04-06T13:20:58;3.15;;;0.43;;
39874;SDS011;25547;52.530;13.194;2023-04-06T13:23:28;2.17;;;0.25;;
39874;SDS011;25547;52.530;13.194;2023-04-06T13:26:01;3.05;;;0.38;;
39874;SDS011;25547;52.530;13.194;2023-04-06T13:28:29;3.85;;;0.20;;
39874;SDS011;25547;52.530;13.194;2023-04-06T13:31:00;1.95;;;0.52;;
39874;SDS011;25547;52.530;13.194;2023-04-06T13:33:27;4.00;;;0.50;;
39874;SDS011;25547;52.530;13.194;2023-04-06T13:35:54;2.53;;;0.35;;
39874;SDS011;25547;52.530;13.194;2023-04-06T13:38:20;4.97;;;0.93;;
39874;SDS011;25547;52.530;13.194;2023-04-06T13:40:46;1.98;;;0.45;;
39874;SDS011;25547;52.530;13.194;2023-04-06T13:43:14;9.23;;;0.60;;
39874;SDS011;25547;52.530;13.194;2023-04-06T13:45:40;2.42;;;0.40;;
39874;SDS011;25547;52.530;13.194;2023-04-06T13:48:06;1.40;;;0.30;;
39874;SDS011;25547;52.530;13.194;2023-04-06T13:50:34;2.30;;;0.30;;
39874;SDS011;25547;52.530;13.194;2023-04-06T13:53:02;2.60;;;0.40;;
39874;SDS011;25547;52.530;13.194;2023-04-06T13:55:28;2.70;;;0.70;;
39874;SDS011;25547;52.530;13.194;2023-04-06T13:57:56;1.88;;;0.35;;
39874;SDS011;25547;52.530;13.194;2023-04-06T14:00:22;1.55;;;0.30;;
39874;SDS011;25547;52.530;13.194;2023-04-06T14:02:48;1.40;;;0.10;;
39874;SDS011;25547;52.530;13.194;2023-04-06T14:05:14;2.20;;;0.30;;
39874;SDS011;25547;52.530;13.194;2023-04-06T14:07:40;1.85;;;0.30;;
39874;SDS011;25547;52.530;13.194;2023-04-06T14:10:08;1.60;;;0.20;;
39874;SDS011;25547;52.530;13.194;2023-04-06T14:12:39;4.07;;;0.57;;
39874;SDS011;25547;52.530;13.194;2023-04-06T14:15:11;4.53;;;1.35;;
39874;SDS011;25547;52.530;13.194;2023-04-06T14:17:37;1.98;;;0.60;;
39874;SDS011;25547;52.530;13.194;2023-04-06T14:20:10;6.38;;;2.47;;
39874;SDS011;25547;52.530;13.194;2023-04-06T14:22:40;3.17;;;1.05;;
39874;SDS011;25547;52.530;13.194;2023-04-06T14:25:07;2.65;;;0.73;;
39874;SDS011;25547;52.530;13.194;2023-04-06T14:27:33;1.73;;;0.20;;
39874;SDS011;25547;52.530;13.194;2023-04-06T14:30:02;1.50;;;0.20;;
39874;SDS011;25547;52.530;13.194;2023-04-06T14:32:27;2.10;;;0.20;;
39874;SDS011;25547;52.530;13.194;2023-04-06T14:34:55;1.13;;;0.20;;
39874;SDS011;25547;52.530;13.194;2023-04-06T14:37:21;1.48;;;0.20;;
39874;SDS011;25547;52.530;13.194;2023-04-06T14:39:47;3.15;;;0.82;;
39874;SDS011;25547;52.530;13.194;2023-04-06T14:42:17;2.72;;;0.20;;
39874;SDS011;25547;52.530;13.194;2023-04-06T14:44:45;1.25;;;0.20;;
39874;SDS011;25547;52.530;13.194;2023-04-06T14:47:13;5.47;;;1.17;;